sensor_id;sensor_type;location;lat;lon;timestamp;P1;durP1;ratioP1;P2;durP2;ratioP2
49221;SDS011;35047;37.588;-122.048;2022-12-26T00:02:08;4.63;;;2.25;;
49221;SDS011;35047;37.588;-122.048;2022-12-26T00:04:35;6.03;;;2.47;;
49221;SDS011;35047;37.588;-122.048;2022-12-26T00:07:01;5.60;;;2.50;;
49221;SDS011;35047;37.588;-122.048;2022-12-26T00:09:30;5.35;;;2.45;;
49221;SDS011;35047;37.588;-122.048;2022-12-26T00:11:57;3.17;;;2.75;;
49221;SDS011;35047;37.588;-122.048;2022-12-26T00:14:25;4.78;;;2.25;;
49221;SDS011;35047;37.588;-122.048;2022-12-26T00:16:54;5.20;;;2.65;;
49221;SDS011;35047;37.588;-122.048;2022-12-26T00:21:46;6.80;;;2.47;;
49221;SDS011;35047;37.588;-122.048;2022-12-26T00:26:41;5.03;;;2.47;;
49221;SDS011;35047;37.588;-122.048;2022-12-26T00:29:07;7.88;;;3.15;;
49221;SDS011;35047;37.588;-122.048;2022-12-26T00:31:34;3.85;;;2.22;;
49221;SDS011;35047;37.588;-122.048;2022-12-26T00:34:01;4.00;;;2.30;;
49221;SDS011;35047;37.588;-122.048;2022-12-26T00:36:29;5.40;;;2.78;;
49221;SDS011;35047;37.588;-122.048;2022-12-26T00:38:58;5.65;;;2.88;;
49221;SDS011;35047;37.588;-122.048;2022-12-26T00:41:27;5.50;;;2.20;;
49221;SDS011;35047;37.588;-122.048;2022-12-26T00:43:56;5.55;;;2.53;;
49221;SDS011;35047;37.588;-122.048;2022-12-26T00:46:24;4.28;;;2.60;;
49221;SDS011;35047;37.588;-122.048;2022-12-26T00:48:52;5.07;;;2.83;;
49221;SDS011;35047;37.588;-122.048;2022-12-26T00:51:20;2.88;;;2.05;;
49221;SDS011;35047;37.588;-122.048;2022-12-26T00:53:46;6.15;;;2.53;;
49221;SDS011;35047;37.588;-122.048;2022-12-26T00:56:13;6.88;;;2.88;;
49221;SDS011;35047;37.588;-122.048;2022-12-26T00:58:41;4.43;;;2.50;;
49221;SDS011;35047;37.588;-122.048;2022-12-26T01:01:15;4.70;;;2.05;;
49221;SDS011;35047;37.588;-122.048;2022-12-26T01:03:43;3.97;;;2.55;;
49221;SDS011;35047;37.588;-122.048;2022-12-26T01:06:13;6.15;;;3.05;;
49221;SDS011;35047;37.588;-122.048;2022-12-26T01:08:40;3.78;;;2.20;;
49221;SDS011;35047;37.588;-122.048;2022-12-26T01:11:08;3.35;;;2.00;;
49221;SDS011;35047;37.588;-122.048;2022-12-26T01:13:36;5.70;;;2.17;;
49221;SDS011;35047;37.588;-122.048;2022-12-26T01:16:04;3.65;;;2.05;;
49221;SDS011;35047;37.588;-122.048;2022-12-26T01:18:32;3.78;;;2.22;;
49221;SDS011;35047;37.588;-122.048;2022-12-26T01:21:00;7.78;;;2.67;;
49221;SDS011;35047;37.588;-122.048;2022-12-26T01:23:32;10.68;;;3.65;;
49221;SDS011;35047;37.588;-122.048;2022-12-26T01:25:59;5.32;;;2.78;;
49221;SDS011;35047;37.588;-122.048;2022-12-26T01:28:25;5.88;;;2.83;;
49221;SDS011;35047;37.588;-122.048;2022-12-26T01:30:53;7.47;;;2.97;;
49221;SDS011;35047;37.588;-122.048;2022-12-26T01:33:20;4.82;;;2.53;;
49221;SDS011;35047;37.588;-122.048;2022-12-26T01:35:48;7.60;;;3.42;;
49221;SDS011;35047;37.588;-122.048;2022-12-26T01:38:17;3.33;;;2.20;;
49221;SDS011;35047;37.588;-122.048;2022-12-26T01:40:44;8.75;;;3.35;;
49221;SDS011;35047;37.588;-122.048;2022-12-26T01:43:12;3.58;;;2.22;;
49221;SDS011;35047;37.588;-122.048;2022-12-26T01:45:40;4.82;;;2.72;;
49221;SDS011;35047;37.588;-122.048;2022-12-26T01:48:13;11.45;;;3.38;;
49221;SDS011;35047;37.588;-122.048;2022-12-26T01:51:00;6.50;;;3.35;;
49221;SDS011;35047;37.588;-122.048;2022-12-26T01:53:36;9.18;;;3.28;;
49221;SDS011;35047;37.588;-122.048;2022-12-26T01:56:16;7.10;;;3.17;;
49221;SDS011;35047;37.588;-122.048;2022-12-26T01:58:52;6.15;;;2.92;;
49221;SDS011;35047;37.588;-122.048;2022-12-26T02:01:27;4.22;;;2.45;;
49221;SDS011;35047;37.588;-122.048;2022-12-26T02:03:58;3.78;;;2.75;;
49221;SDS011;35047;37.588;-122.048;2022-12-26T02:06:48;8.82;;;2.83;;
49221;SDS011;35047;37.588;-122.048;2022-12-26T02:09:15;5.70;;;2.47;;
49221;SDS011;35047;37.588;-122.048;2022-12-26T02:14:55;6.18;;;2.60;;
49221;SDS011;35047;37.588;-122.048;2022-12-26T02:17:26;5.57;;;2.70;;
49221;SDS011;35047;37.588;-122.048;2022-12-26T02:31:24;7.05;;;3.78;;
49221;SDS011;35047;37.588;-122.048;2022-12-26T02:44:51;7.32;;;3.10;;
49221;SDS011;35047;37.588;-122.048;2022-12-26T02:50:38;6.63;;;3.70;;
49221;SDS011;35047;37.588;-122.048;2022-12-26T02:56:41;13.18;;;3.88;;
49221;SDS011;35047;37.588;-122.048;2022-12-26T02:59:39;6.45;;;2.70;;
49221;SDS011;35047;37.588;-122.048;2022-12-26T03:02:57;7.22;;;3.70;;
49221;SDS011;35047;37.588;-122.048;2022-12-26T03:05:49;8.40;;;3.20;;
49221;SDS011;35047;37.588;-122.048;2022-12-26T03:08:59;7.93;;;2.63;;
49221;SDS011;35047;37.588;-122.048;2022-12-26T03:11:49;6.10;;;3.40;;
49221;SDS011;35047;37.588;-122.048;2022-12-26T03:14:47;8.82;;;3.72;;
49221;SDS011;35047;37.588;-122.048;2022-12-26T03:17:30;6.20;;;3.67;;
49221;SDS011;35047;37.588;-122.048;2022-12-26T03:20:11;4.68;;;3.10;;
49221;SDS011;35047;37.588;-122.048;2022-12-26T03:25:18;5.60;;;3.22;;
49221;SDS011;35047;37.588;-122.048;2022-12-26T03:28:13;8.55;;;3.25;;
49221;SDS011;35047;37.588;-122.048;2022-12-26T03:30:40;7.60;;;3.22;;
49221;SDS011;35047;37.588;-122.048;2022-12-26T03:33:14;7.18;;;4.20;;
49221;SDS011;35047;37.588;-122.048;2022-12-26T03:36:06;5.25;;;3.15;;
49221;SDS011;35047;37.588;-122.048;2022-12-26T03:38:40;5.95;;;3.47;;
49221;SDS011;35047;37.588;-122.048;2022-12-26T03:41:30;12.93;;;4.05;;
49221;SDS011;35047;37.588;-122.048;2022-12-26T03:47:30;4.50;;;3.28;;
49221;SDS011;35047;37.588;-122.048;2022-12-26T03:50:33;7.00;;;4.03;;
49221;SDS011;35047;37.588;-122.048;2022-12-26T03:54:12;7.07;;;3.90;;
49221;SDS011;35047;37.588;-122.048;2022-12-26T03:56:40;7.18;;;3.45;;
49221;SDS011;35047;37.588;-122.048;2022-12-26T03:59:41;6.20;;;3.72;;
49221;SDS011;35047;37.588;-122.048;2022-12-26T04:02:32;9.98;;;3.85;;
49221;SDS011;35047;37.588;-122.048;2022-12-26T04:05:20;8.70;;;3.72;;
49221;SDS011;35047;37.588;-122.048;2022-12-26T04:08:10;6.55;;;3.42;;
49221;SDS011;35047;37.588;-122.048;2022-12-26T04:11:01;8.80;;;4.50;;
49221;SDS011;35047;37.588;-122.048;2022-12-26T04:22:54;7.57;;;4.00;;
49221;SDS011;35047;37.588;-122.048;2022-12-26T04:25:50;8.55;;;4.15;;
49221;SDS011;35047;37.588;-122.048;2022-12-26T04:28:44;5.85;;;3.55;;
49221;SDS011;35047;37.588;-122.048;2022-12-26T04:34:19;8.05;;;3.72;;
49221;SDS011;35047;37.588;-122.048;2022-12-26T04:37:13;7.07;;;2.92;;
49221;SDS011;35047;37.588;-122.048;2022-12-26T04:40:04;8.50;;;4.10;;
49221;SDS011;35047;37.588;-122.048;2022-12-26T04:42:54;11.43;;;4.28;;
49221;SDS011;35047;37.588;-122.048;2022-12-26T04:45:41;5.65;;;2.95;;
49221;SDS011;35047;37.588;-122.048;2022-12-26T04:48:09;8.57;;;3.78;;
49221;SDS011;35047;37.588;-122.048;2022-12-26T04:50:54;4.65;;;2.55;;
49221;SDS011;35047;37.588;-122.048;2022-12-26T04:53:21;5.68;;;2.95;;
49221;SDS011;35047;37.588;-122.048;2022-12-26T04:58:15;6.82;;;2.47;;
49221;SDS011;35047;37.588;-122.048;2022-12-26T05:00:42;6.45;;;3.30;;
49221;SDS011;35047;37.588;-122.048;2022-12-26T05:03:11;6.80;;;2.72;;
49221;SDS011;35047;37.588;-122.048;2022-12-26T05:05:57;5.82;;;3.53;;
49221;SDS011;35047;37.588;-122.048;2022-12-26T05:08:44;6.95;;;4.43;;
49221;SDS011;35047;37.588;-122.048;2022-12-26T05:11:30;9.52;;;3.58;;
49221;SDS011;35047;37.588;-122.048;2022-12-26T05:13:58;3.75;;;2.30;;
49221;SDS011;35047;37.588;-122.048;2022-12-26T05:19:11;10.52;;;3.88;;
49221;SDS011;35047;37.588;-122.048;2022-12-26T05:21:59;8.00;;;3.87;;
49221;SDS011;35047;37.588;-122.048;2022-12-26T05:24:45;8.13;;;3.92;;
49221;SDS011;35047;37.588;-122.048;2022-12-26T05:27:36;7.55;;;3.50;;
49221;SDS011;35047;37.588;-122.048;2022-12-26T05:30:24;10.60;;;3.65;;
49221;SDS011;35047;37.588;-122.048;2022-12-26T05:32:51;6.55;;;3.00;;
49221;SDS011;35047;37.588;-122.048;2022-12-26T05:35:37;5.22;;;2.90;;
49221;SDS011;35047;37.588;-122.048;2022-12-26T05:38:06;3.83;;;2.63;;
49221;SDS011;35047;37.588;-122.048;2022-12-26T05:40:35;4.82;;;2.53;;
49221;SDS011;35047;37.588;-122.048;2022-12-26T05:43:02;4.88;;;2.60;;
49221;SDS011;35047;37.588;-122.048;2022-12-26T05:45:29;7.60;;;3.13;;
49221;SDS011;35047;37.588;-122.048;2022-12-26T05:47:59;2.88;;;2.42;;
49221;SDS011;35047;37.588;-122.048;2022-12-26T05:50:28;7.32;;;3.25;;
49221;SDS011;35047;37.588;-122.048;2022-12-26T05:52:56;3.70;;;2.53;;
49221;SDS011;35047;37.588;-122.048;2022-12-26T05:55:23;3.05;;;2.42;;
49221;SDS011;35047;37.588;-122.048;2022-12-26T05:57:50;4.85;;;2.22;;
49221;SDS011;35047;37.588;-122.048;2022-12-26T06:00:17;6.30;;;2.80;;
49221;SDS011;35047;37.588;-122.048;2022-12-26T06:02:44;6.15;;;2.40;;
49221;SDS011;35047;37.588;-122.048;2022-12-26T06:05:10;4.28;;;3.00;;
49221;SDS011;35047;37.588;-122.048;2022-12-26T06:10:05;7.40;;;2.78;;
49221;SDS011;35047;37.588;-122.048;2022-12-26T06:12:33;3.58;;;2.90;;
49221;SDS011;35047;37.588;-122.048;2022-12-26T06:15:00;6.30;;;2.93;;
49221;SDS011;35047;37.588;-122.048;2022-12-26T06:17:28;4.90;;;2.97;;
49221;SDS011;35047;37.588;-122.048;2022-12-26T06:19:55;7.10;;;2.78;;
49221;SDS011;35047;37.588;-122.048;2022-12-26T06:22:22;5.05;;;2.10;;
49221;SDS011;35047;37.588;-122.048;2022-12-26T06:24:49;5.93;;;2.17;;
49221;SDS011;35047;37.588;-122.048;2022-12-26T06:27:16;6.20;;;2.83;;
49221;SDS011;35047;37.588;-122.048;2022-12-26T06:29:44;7.05;;;3.20;;
49221;SDS011;35047;37.588;-122.048;2022-12-26T06:32:11;3.42;;;2.45;;
49221;SDS011;35047;37.588;-122.048;2022-12-26T06:34:41;4.13;;;2.35;;
49221;SDS011;35047;37.588;-122.048;2022-12-26T06:37:08;6.03;;;2.97;;
49221;SDS011;35047;37.588;-122.048;2022-12-26T06:39:34;4.40;;;2.53;;
49221;SDS011;35047;37.588;-122.048;2022-12-26T06:42:02;6.55;;;2.53;;
49221;SDS011;35047;37.588;-122.048;2022-12-26T06:44:29;4.38;;;2.63;;
49221;SDS011;35047;37.588;-122.048;2022-12-26T06:46:56;3.90;;;2.22;;
49221;SDS011;35047;37.588;-122.048;2022-12-26T06:49:23;5.07;;;2.53;;
49221;SDS011;35047;37.588;-122.048;2022-12-26T06:51:50;6.47;;;2.17;;
49221;SDS011;35047;37.588;-122.048;2022-12-26T06:54:18;3.75;;;2.30;;
49221;SDS011;35047;37.588;-122.048;2022-12-26T06:56:44;5.13;;;2.10;;
49221;SDS011;35047;37.588;-122.048;2022-12-26T06:59:11;2.45;;;1.42;;
49221;SDS011;35047;37.588;-122.048;2022-12-26T07:01:38;2.25;;;1.50;;
49221;SDS011;35047;37.588;-122.048;2022-12-26T07:04:05;3.47;;;1.95;;
49221;SDS011;35047;37.588;-122.048;2022-12-26T07:06:33;4.20;;;2.03;;
49221;SDS011;35047;37.588;-122.048;2022-12-26T07:09:07;2.33;;;2.08;;
49221;SDS011;35047;37.588;-122.048;2022-12-26T07:11:39;4.85;;;1.65;;
49221;SDS011;35047;37.588;-122.048;2022-12-26T07:14:07;4.22;;;2.00;;
49221;SDS011;35047;37.588;-122.048;2022-12-26T07:16:34;4.97;;;2.17;;
49221;SDS011;35047;37.588;-122.048;2022-12-26T07:19:03;8.02;;;2.80;;
49221;SDS011;35047;37.588;-122.048;2022-12-26T07:21:31;6.85;;;3.38;;
49221;SDS011;35047;37.588;-122.048;2022-12-26T07:23:58;6.90;;;3.97;;
49221;SDS011;35047;37.588;-122.048;2022-12-26T07:26:26;9.23;;;3.05;;
49221;SDS011;35047;37.588;-122.048;2022-12-26T07:28:58;7.53;;;3.92;;
49221;SDS011;35047;37.588;-122.048;2022-12-26T07:31:25;10.15;;;4.50;;
49221;SDS011;35047;37.588;-122.048;2022-12-26T07:33:53;12.80;;;4.85;;
49221;SDS011;35047;37.588;-122.048;2022-12-26T07:36:21;10.63;;;5.32;;
49221;SDS011;35047;37.588;-122.048;2022-12-26T07:38:52;6.28;;;4.05;;
49221;SDS011;35047;37.588;-122.048;2022-12-26T07:41:20;12.15;;;4.68;;
49221;SDS011;35047;37.588;-122.048;2022-12-26T07:44:07;8.27;;;4.22;;
49221;SDS011;35047;37.588;-122.048;2022-12-26T07:46:35;6.45;;;3.13;;
49221;SDS011;35047;37.588;-122.048;2022-12-26T07:49:02;10.07;;;4.15;;
49221;SDS011;35047;37.588;-122.048;2022-12-26T07:51:29;7.15;;;4.18;;
49221;SDS011;35047;37.588;-122.048;2022-12-26T07:53:56;10.57;;;5.38;;
49221;SDS011;35047;37.588;-122.048;2022-12-26T07:56:23;10.95;;;5.07;;
49221;SDS011;35047;37.588;-122.048;2022-12-26T07:58:50;9.43;;;3.88;;
49221;SDS011;35047;37.588;-122.048;2022-12-26T08:01:18;6.63;;;4.10;;
49221;SDS011;35047;37.588;-122.048;2022-12-26T08:03:46;12.75;;;4.32;;
49221;SDS011;35047;37.588;-122.048;2022-12-26T08:06:15;8.05;;;4.15;;
49221;SDS011;35047;37.588;-122.048;2022-12-26T08:08:43;9.45;;;4.82;;
49221;SDS011;35047;37.588;-122.048;2022-12-26T08:11:14;9.55;;;4.80;;
49221;SDS011;35047;37.588;-122.048;2022-12-26T08:13:43;7.72;;;4.63;;
49221;SDS011;35047;37.588;-122.048;2022-12-26T08:16:11;12.13;;;4.68;;
49221;SDS011;35047;37.588;-122.048;2022-12-26T08:18:39;13.00;;;4.43;;
49221;SDS011;35047;37.588;-122.048;2022-12-26T08:23:34;10.13;;;5.60;;
49221;SDS011;35047;37.588;-122.048;2022-12-26T08:26:05;11.38;;;5.57;;
49221;SDS011;35047;37.588;-122.048;2022-12-26T08:28:33;10.38;;;4.25;;
49221;SDS011;35047;37.588;-122.048;2022-12-26T08:31:03;9.50;;;4.03;;
49221;SDS011;35047;37.588;-122.048;2022-12-26T08:33:31;11.35;;;5.00;;
49221;SDS011;35047;37.588;-122.048;2022-12-26T08:36:00;10.30;;;4.80;;
49221;SDS011;35047;37.588;-122.048;2022-12-26T08:38:30;8.25;;;4.47;;
49221;SDS011;35047;37.588;-122.048;2022-12-26T08:40:57;10.10;;;4.97;;
49221;SDS011;35047;37.588;-122.048;2022-12-26T08:43:24;7.08;;;3.10;;
49221;SDS011;35047;37.588;-122.048;2022-12-26T08:48:26;8.30;;;4.82;;
49221;SDS011;35047;37.588;-122.048;2022-12-26T08:53:25;12.75;;;5.82;;
49221;SDS011;35047;37.588;-122.048;2022-12-26T08:55:53;7.15;;;4.38;;
49221;SDS011;35047;37.588;-122.048;2022-12-26T08:58:21;10.15;;;4.03;;
49221;SDS011;35047;37.588;-122.048;2022-12-26T09:00:47;11.25;;;5.70;;
49221;SDS011;35047;37.588;-122.048;2022-12-26T09:03:15;7.88;;;4.18;;
49221;SDS011;35047;37.588;-122.048;2022-12-26T09:05:42;9.30;;;4.22;;
49221;SDS011;35047;37.588;-122.048;2022-12-26T09:08:09;12.77;;;5.73;;
49221;SDS011;35047;37.588;-122.048;2022-12-26T09:10:37;11.48;;;4.18;;
49221;SDS011;35047;37.588;-122.048;2022-12-26T09:13:04;14.13;;;4.45;;
49221;SDS011;35047;37.588;-122.048;2022-12-26T09:15:31;15.57;;;5.90;;
49221;SDS011;35047;37.588;-122.048;2022-12-26T09:20:25;12.00;;;6.05;;
49221;SDS011;35047;37.588;-122.048;2022-12-26T09:22:52;7.35;;;4.07;;
49221;SDS011;35047;37.588;-122.048;2022-12-26T09:25:20;18.75;;;4.57;;
49221;SDS011;35047;37.588;-122.048;2022-12-26T09:27:49;14.43;;;4.45;;
49221;SDS011;35047;37.588;-122.048;2022-12-26T09:30:18;10.07;;;4.30;;
49221;SDS011;35047;37.588;-122.048;2022-12-26T09:32:47;9.95;;;4.35;;
49221;SDS011;35047;37.588;-122.048;2022-12-26T09:35:14;9.45;;;5.85;;
49221;SDS011;35047;37.588;-122.048;2022-12-26T09:37:41;16.17;;;4.93;;
49221;SDS011;35047;37.588;-122.048;2022-12-26T09:40:12;13.63;;;5.13;;
49221;SDS011;35047;37.588;-122.048;2022-12-26T09:50:55;14.43;;;5.53;;
49221;SDS011;35047;37.588;-122.048;2022-12-26T09:53:28;10.55;;;4.60;;
49221;SDS011;35047;37.588;-122.048;2022-12-26T09:56:08;9.70;;;4.47;;
49221;SDS011;35047;37.588;-122.048;2022-12-26T09:59:00;9.45;;;4.72;;
49221;SDS011;35047;37.588;-122.048;2022-12-26T10:01:31;8.27;;;4.10;;
49221;SDS011;35047;37.588;-122.048;2022-12-26T10:04:05;11.60;;;6.45;;
49221;SDS011;35047;37.588;-122.048;2022-12-26T10:06:37;9.45;;;4.63;;
49221;SDS011;35047;37.588;-122.048;2022-12-26T10:09:13;8.30;;;5.15;;
49221;SDS011;35047;37.588;-122.048;2022-12-26T10:12:00;9.13;;;4.18;;
49221;SDS011;35047;37.588;-122.048;2022-12-26T10:20:04;14.13;;;5.03;;
49221;SDS011;35047;37.588;-122.048;2022-12-26T10:31:48;8.60;;;3.42;;
49221;SDS011;35047;37.588;-122.048;2022-12-26T10:37:36;6.20;;;3.60;;
49221;SDS011;35047;37.588;-122.048;2022-12-26T10:39:47;6.90;;;3.78;;
49221;SDS011;35047;37.588;-122.048;2022-12-26T10:44:58;6.75;;;4.90;;
49221;SDS011;35047;37.588;-122.048;2022-12-26T10:49:56;8.40;;;4.57;;
49221;SDS011;35047;37.588;-122.048;2022-12-26T10:52:28;11.95;;;5.07;;
49221;SDS011;35047;37.588;-122.048;2022-12-26T10:55:02;10.27;;;4.20;;
49221;SDS011;35047;37.588;-122.048;2022-12-26T10:57:31;9.85;;;5.40;;
49221;SDS011;35047;37.588;-122.048;2022-12-26T11:00:02;9.70;;;4.82;;
49221;SDS011;35047;37.588;-122.048;2022-12-26T11:02:38;12.32;;;5.72;;
49221;SDS011;35047;37.588;-122.048;2022-12-26T11:07:37;16.63;;;4.57;;
49221;SDS011;35047;37.588;-122.048;2022-12-26T11:10:18;6.47;;;4.60;;
49221;SDS011;35047;37.588;-122.048;2022-12-26T11:12:48;5.15;;;3.28;;
49221;SDS011;35047;37.588;-122.048;2022-12-26T11:18:06;7.50;;;4.25;;
49221;SDS011;35047;37.588;-122.048;2022-12-26T11:20:41;8.18;;;3.88;;
49221;SDS011;35047;37.588;-122.048;2022-12-26T11:23:27;8.30;;;3.92;;
49221;SDS011;35047;37.588;-122.048;2022-12-26T11:25:59;9.23;;;4.72;;
49221;SDS011;35047;37.588;-122.048;2022-12-26T11:28:31;14.48;;;4.55;;
49221;SDS011;35047;37.588;-122.048;2022-12-26T11:31:06;5.88;;;2.80;;
49221;SDS011;35047;37.588;-122.048;2022-12-26T11:33:44;8.95;;;3.67;;
49221;SDS011;35047;37.588;-122.048;2022-12-26T11:38:52;8.43;;;3.58;;
49221;SDS011;35047;37.588;-122.048;2022-12-26T11:49:23;4.63;;;2.85;;
49221;SDS011;35047;37.588;-122.048;2022-12-26T11:51:55;4.75;;;3.47;;
49221;SDS011;35047;37.588;-122.048;2022-12-26T11:57:26;6.85;;;3.83;;
49221;SDS011;35047;37.588;-122.048;2022-12-26T11:59:54;5.80;;;3.42;;
49221;SDS011;35047;37.588;-122.048;2022-12-26T12:02:41;6.30;;;3.78;;
49221;SDS011;35047;37.588;-122.048;2022-12-26T12:05:13;6.43;;;4.32;;
49221;SDS011;35047;37.588;-122.048;2022-12-26T12:10:57;7.70;;;3.13;;
49221;SDS011;35047;37.588;-122.048;2022-12-26T12:19:33;6.25;;;3.22;;
49221;SDS011;35047;37.588;-122.048;2022-12-26T12:30:33;5.38;;;2.90;;
49221;SDS011;35047;37.588;-122.048;2022-12-26T12:35:51;8.10;;;3.47;;
49221;SDS011;35047;37.588;-122.048;2022-12-26T12:41:22;3.60;;;2.97;;
49221;SDS011;35047;37.588;-122.048;2022-12-26T12:53:09;10.32;;;3.60;;
49221;SDS011;35047;37.588;-122.048;2022-12-26T12:55:42;6.38;;;3.80;;
49221;SDS011;35047;37.588;-122.048;2022-12-26T12:58:13;5.18;;;2.88;;
49221;SDS011;35047;37.588;-122.048;2022-12-26T13:00:55;5.53;;;3.08;;
49221;SDS011;35047;37.588;-122.048;2022-12-26T13:06:07;3.53;;;2.65;;
49221;SDS011;35047;37.588;-122.048;2022-12-26T13:17:15;7.18;;;3.45;;
49221;SDS011;35047;37.588;-122.048;2022-12-26T13:19:46;7.55;;;3.15;;
49221;SDS011;35047;37.588;-122.048;2022-12-26T13:22:39;5.93;;;3.00;;
49221;SDS011;35047;37.588;-122.048;2022-12-26T13:25:30;8.30;;;3.72;;
49221;SDS011;35047;37.588;-122.048;2022-12-26T13:28:01;8.32;;;2.20;;
49221;SDS011;35047;37.588;-122.048;2022-12-26T13:30:35;5.97;;;3.50;;
49221;SDS011;35047;37.588;-122.048;2022-12-26T13:33:03;5.82;;;3.17;;
49221;SDS011;35047;37.588;-122.048;2022-12-26T13:41:23;4.78;;;2.63;;
49221;SDS011;35047;37.588;-122.048;2022-12-26T13:55:17;4.82;;;3.50;;
49221;SDS011;35047;37.588;-122.048;2022-12-26T13:57:39;10.40;;;2.88;;
49221;SDS011;35047;37.588;-122.048;2022-12-26T14:16:52;6.78;;;3.45;;
49221;SDS011;35047;37.588;-122.048;2022-12-26T14:19:30;4.63;;;2.28;;
49221;SDS011;35047;37.588;-122.048;2022-12-26T14:22:25;3.88;;;2.78;;
49221;SDS011;35047;37.588;-122.048;2022-12-26T14:25:07;4.43;;;3.17;;
49221;SDS011;35047;37.588;-122.048;2022-12-26T14:27:45;3.63;;;2.33;;
49221;SDS011;35047;37.588;-122.048;2022-12-26T14:30:49;7.72;;;2.90;;
49221;SDS011;35047;37.588;-122.048;2022-12-26T14:35:56;6.43;;;2.80;;
49221;SDS011;35047;37.588;-122.048;2022-12-26T14:38:43;3.80;;;2.30;;
49221;SDS011;35047;37.588;-122.048;2022-12-26T14:41:23;6.40;;;2.58;;
49221;SDS011;35047;37.588;-122.048;2022-12-26T14:44:52;4.25;;;2.58;;
49221;SDS011;35047;37.588;-122.048;2022-12-26T14:47:00;5.35;;;3.15;;
49221;SDS011;35047;37.588;-122.048;2022-12-26T14:54:48;5.75;;;2.95;;
49221;SDS011;35047;37.588;-122.048;2022-12-26T15:00:14;4.13;;;2.60;;
49221;SDS011;35047;37.588;-122.048;2022-12-26T15:05:37;7.38;;;3.13;;
49221;SDS011;35047;37.588;-122.048;2022-12-26T15:14:07;5.05;;;3.28;;
49221;SDS011;35047;37.588;-122.048;2022-12-26T15:17:13;7.25;;;3.05;;
49221;SDS011;35047;37.588;-122.048;2022-12-26T15:34:31;7.93;;;3.38;;
49221;SDS011;35047;37.588;-122.048;2022-12-26T15:37:07;6.13;;;3.30;;
49221;SDS011;35047;37.588;-122.048;2022-12-26T15:42:33;3.80;;;3.40;;
49221;SDS011;35047;37.588;-122.048;2022-12-26T15:50:45;4.97;;;3.05;;
49221;SDS011;35047;37.588;-122.048;2022-12-26T15:56:30;5.47;;;2.83;;
49221;SDS011;35047;37.588;-122.048;2022-12-26T16:05:05;5.70;;;3.00;;
49221;SDS011;35047;37.588;-122.048;2022-12-26T16:13:47;5.80;;;3.30;;
49221;SDS011;35047;37.588;-122.048;2022-12-26T16:16:25;4.30;;;2.60;;
49221;SDS011;35047;37.588;-122.048;2022-12-26T16:18:55;5.30;;;2.30;;
49221;SDS011;35047;37.588;-122.048;2022-12-26T16:21:23;9.35;;;3.58;;
49221;SDS011;35047;37.588;-122.048;2022-12-26T16:24:12;5.93;;;3.17;;
49221;SDS011;35047;37.588;-122.048;2022-12-26T16:26:42;5.50;;;2.70;;
49221;SDS011;35047;37.588;-122.048;2022-12-26T16:29:16;3.92;;;2.42;;
49221;SDS011;35047;37.588;-122.048;2022-12-26T16:31:45;9.15;;;2.75;;
49221;SDS011;35047;37.588;-122.048;2022-12-26T16:34:14;4.22;;;2.53;;
49221;SDS011;35047;37.588;-122.048;2022-12-26T16:36:44;5.05;;;2.95;;
49221;SDS011;35047;37.588;-122.048;2022-12-26T16:39:11;6.38;;;2.60;;
49221;SDS011;35047;37.588;-122.048;2022-12-26T16:42:06;5.68;;;2.63;;
49221;SDS011;35047;37.588;-122.048;2022-12-26T16:45:02;6.88;;;2.97;;
49221;SDS011;35047;37.588;-122.048;2022-12-26T16:47:31;4.90;;;3.03;;
49221;SDS011;35047;37.588;-122.048;2022-12-26T16:49:58;8.88;;;3.70;;
49221;SDS011;35047;37.588;-122.048;2022-12-26T16:52:36;5.63;;;3.10;;
49221;SDS011;35047;37.588;-122.048;2022-12-26T16:55:24;5.25;;;3.38;;
49221;SDS011;35047;37.588;-122.048;2022-12-26T16:57:54;7.15;;;3.17;;
49221;SDS011;35047;37.588;-122.048;2022-12-26T17:00:22;8.48;;;4.05;;
49221;SDS011;35047;37.588;-122.048;2022-12-26T17:02:51;9.38;;;4.32;;
49221;SDS011;35047;37.588;-122.048;2022-12-26T17:07:56;7.47;;;3.40;;
49221;SDS011;35047;37.588;-122.048;2022-12-26T17:10:29;5.57;;;3.65;;
49221;SDS011;35047;37.588;-122.048;2022-12-26T17:12:59;4.82;;;3.17;;
49221;SDS011;35047;37.588;-122.048;2022-12-26T17:15:31;10.70;;;3.83;;
49221;SDS011;35047;37.588;-122.048;2022-12-26T17:18:27;10.35;;;3.55;;
49221;SDS011;35047;37.588;-122.048;2022-12-26T17:26:50;5.53;;;3.60;;
49221;SDS011;35047;37.588;-122.048;2022-12-26T17:29:36;7.25;;;4.00;;
49221;SDS011;35047;37.588;-122.048;2022-12-26T17:32:35;10.50;;;3.53;;
49221;SDS011;35047;37.588;-122.048;2022-12-26T17:35:15;5.25;;;3.17;;
49221;SDS011;35047;37.588;-122.048;2022-12-26T17:37:49;8.38;;;4.05;;
49221;SDS011;35047;37.588;-122.048;2022-12-26T17:45:43;4.80;;;3.33;;
49221;SDS011;35047;37.588;-122.048;2022-12-26T17:48:10;7.65;;;2.85;;
49221;SDS011;35047;37.588;-122.048;2022-12-26T17:50:41;6.18;;;3.80;;
49221;SDS011;35047;37.588;-122.048;2022-12-26T17:55:48;13.75;;;4.78;;
49221;SDS011;35047;37.588;-122.048;2022-12-26T17:58:15;9.18;;;4.50;;
49221;SDS011;35047;37.588;-122.048;2022-12-26T18:00:42;9.00;;;4.18;;
49221;SDS011;35047;37.588;-122.048;2022-12-26T18:03:09;12.45;;;4.35;;
49221;SDS011;35047;37.588;-122.048;2022-12-26T18:05:36;8.55;;;4.10;;
49221;SDS011;35047;37.588;-122.048;2022-12-26T18:08:05;5.93;;;3.40;;
49221;SDS011;35047;37.588;-122.048;2022-12-26T18:10:34;15.55;;;4.00;;
49221;SDS011;35047;37.588;-122.048;2022-12-26T18:13:01;9.65;;;4.18;;
49221;SDS011;35047;37.588;-122.048;2022-12-26T18:15:29;6.97;;;3.42;;
49221;SDS011;35047;37.588;-122.048;2022-12-26T18:17:56;8.40;;;4.03;;
49221;SDS011;35047;37.588;-122.048;2022-12-26T18:20:25;9.23;;;4.45;;
49221;SDS011;35047;37.588;-122.048;2022-12-26T18:22:53;5.88;;;3.78;;
49221;SDS011;35047;37.588;-122.048;2022-12-26T18:25:23;8.75;;;4.13;;
49221;SDS011;35047;37.588;-122.048;2022-12-26T18:27:52;7.40;;;4.28;;
49221;SDS011;35047;37.588;-122.048;2022-12-26T18:30:19;5.93;;;3.05;;
49221;SDS011;35047;37.588;-122.048;2022-12-26T18:32:47;6.53;;;3.63;;
49221;SDS011;35047;37.588;-122.048;2022-12-26T18:35:16;9.25;;;3.83;;
49221;SDS011;35047;37.588;-122.048;2022-12-26T18:37:48;4.88;;;3.05;;
49221;SDS011;35047;37.588;-122.048;2022-12-26T18:43:03;8.95;;;3.78;;
49221;SDS011;35047;37.588;-122.048;2022-12-26T18:45:32;8.43;;;3.53;;
49221;SDS011;35047;37.588;-122.048;2022-12-26T18:48:00;5.57;;;3.35;;
49221;SDS011;35047;37.588;-122.048;2022-12-26T18:50:28;7.53;;;3.60;;
49221;SDS011;35047;37.588;-122.048;2022-12-26T18:52:56;11.10;;;4.28;;
49221;SDS011;35047;37.588;-122.048;2022-12-26T18:55:24;14.73;;;3.88;;
49221;SDS011;35047;37.588;-122.048;2022-12-26T18:57:51;6.20;;;3.70;;
49221;SDS011;35047;37.588;-122.048;2022-12-26T19:00:19;6.93;;;2.58;;
49221;SDS011;35047;37.588;-122.048;2022-12-26T19:02:47;19.55;;;3.60;;
49221;SDS011;35047;37.588;-122.048;2022-12-26T19:05:19;7.25;;;4.13;;
49221;SDS011;35047;37.588;-122.048;2022-12-26T19:07:55;8.23;;;3.50;;
49221;SDS011;35047;37.588;-122.048;2022-12-26T19:10:24;7.25;;;3.72;;
49221;SDS011;35047;37.588;-122.048;2022-12-26T19:12:54;7.95;;;3.35;;
49221;SDS011;35047;37.588;-122.048;2022-12-26T19:15:23;9.85;;;3.53;;
49221;SDS011;35047;37.588;-122.048;2022-12-26T19:17:50;4.88;;;2.80;;
49221;SDS011;35047;37.588;-122.048;2022-12-26T19:20:18;6.95;;;3.00;;